createdAt,value
2019-03-30T00:04:00.000Z,8.8
2019-03-30T00:09:00.000Z,8.7
2019-03-30T00:14:00.000Z,8.6
2019-03-30T00:19:00.000Z,8.4
2019-03-30T00:24:00.000Z,8.4
2019-03-30T00:29:00.000Z,8.3
2019-03-30T00:34:00.000Z,8.2
2019-03-30T00:39:00.000Z,8.1
2019-03-30T00:44:00.000Z,8.1
2019-03-30T00:49:00.000Z,8.1
2019-03-30T00:54:00.000Z,8.2
2019-03-30T00:59:00.000Z,8.2
2019-03-30T01:04:00.000Z,8.2
2019-03-30T01:09:00.000Z,8.3
2019-03-30T01:14:00.000Z,8.3
2019-03-30T01:19:00.000Z,8.3
2019-03-30T01:25:00.000Z,8.4
2019-03-30T01:30:00.000Z,8.4
2019-03-30T01:35:00.000Z,8.4
2019-03-30T01:40:00.000Z,8.4
2019-03-30T01:45:00.000Z,8.4
2019-03-30T01:50:00.000Z,8.3
2019-03-30T01:55:00.000Z,8.2
2019-03-30T02:00:00.000Z,8.1
2019-03-30T02:05:00.000Z,8.0
2019-03-30T02:10:00.000Z,7.8
2019-03-30T02:15:00.000Z,7.8
2019-03-30T02:20:00.000Z,7.7
2019-03-30T02:25:00.000Z,7.7
2019-03-30T02:30:00.000Z,7.6
2019-03-30T02:35:00.000Z,7.6
2019-03-30T02:40:00.000Z,7.6
2019-03-30T02:45:00.000Z,7.6
2019-03-30T02:50:00.000Z,7.5
2019-03-30T02:55:00.000Z,7.4
2019-03-30T03:00:00.000Z,7.2
2019-03-30T03:05:00.000Z,7.1
2019-03-30T03:10:00.000Z,7.1
2019-03-30T03:15:00.000Z,7.1
2019-03-30T03:20:00.000Z,7.1
2019-03-30T03:26:00.000Z,7.1
2019-03-30T03:31:00.000Z,7.0
2019-03-30T03:36:00.000Z,7.0
2019-03-30T03:41:00.000Z,7.0
2019-03-30T03:46:00.000Z,7.1
2019-03-30T03:51:00.000Z,7.1
2019-03-30T03:56:00.000Z,7.2
2019-03-30T04:01:00.000Z,7.1
2019-03-30T04:06:00.000Z,7.1
2019-03-30T04:11:00.000Z,7.1
2019-03-30T04:16:00.000Z,7.1
2019-03-30T04:21:00.000Z,7.1
2019-03-30T04:26:00.000Z,7.2
2019-03-30T04:31:00.000Z,7.2
2019-03-30T04:36:00.000Z,7.2
2019-03-30T04:41:00.000Z,7.2
2019-03-30T04:46:00.000Z,7.2
2019-03-30T04:51:00.000Z,7.2
2019-03-30T04:56:00.000Z,7.2
2019-03-30T05:01:00.000Z,7.2
2019-03-30T05:07:00.000Z,7.3
2019-03-30T05:12:00.000Z,7.3
2019-03-30T05:17:00.000Z,7.3
2019-03-30T05:22:00.000Z,7.3
2019-03-30T05:27:00.000Z,7.3
2019-03-30T05:32:00.000Z,7.4
2019-03-30T05:37:00.000Z,7.4
2019-03-30T05:42:00.000Z,7.5
2019-03-30T05:47:00.000Z,7.5
2019-03-30T05:52:00.000Z,7.5
2019-03-30T05:57:00.000Z,7.5
2019-03-30T06:02:00.000Z,7.5
2019-03-30T06:07:00.000Z,7.5
2019-03-30T06:12:00.000Z,7.6
2019-03-30T06:17:00.000Z,7.8
2019-03-30T06:22:00.000Z,7.9
2019-03-30T06:27:00.000Z,8.0
2019-03-30T06:32:00.000Z,8.1
2019-03-30T06:37:00.000Z,8.2
2019-03-30T06:42:00.000Z,8.3
2019-03-30T06:47:00.000Z,8.5
2019-03-30T06:52:00.000Z,8.7
2019-03-30T06:57:00.000Z,9.0
2019-03-30T07:02:00.000Z,9.2
2019-03-30T07:08:00.000Z,9.4
2019-03-30T07:13:00.000Z,9.6
2019-03-30T07:18:00.000Z,9.8
2019-03-30T07:23:00.000Z,10.0
2019-03-30T07:28:00.000Z,10.2
2019-03-30T07:33:00.000Z,10.3
2019-03-30T07:38:00.000Z,10.5
2019-03-30T07:43:00.000Z,10.7
2019-03-30T07:48:00.000Z,10.9
2019-03-30T07:53:00.000Z,11.2
2019-03-30T07:58:00.000Z,11.4
2019-03-30T08:03:00.000Z,11.7
2019-03-30T08:08:00.000Z,11.9
2019-03-30T08:13:00.000Z,12.1
2019-03-30T08:18:00.000Z,12.4
2019-03-30T08:23:00.000Z,13.5
2019-03-30T08:28:00.000Z,14.7
2019-03-30T08:33:00.000Z,16.0
2019-03-30T08:38:00.000Z,17.0
2019-03-30T08:43:00.000Z,17.7
2019-03-30T08:48:00.000Z,18.4
2019-03-30T08:53:00.000Z,19.3
2019-03-30T08:58:00.000Z,20.2
2019-03-30T09:03:00.000Z,20.7
2019-03-30T09:08:00.000Z,21.3
2019-03-30T09:13:00.000Z,22.0
2019-03-30T09:18:00.000Z,22.2
2019-03-30T09:23:00.000Z,22.3
2019-03-30T09:29:00.000Z,22.4
2019-03-30T09:34:00.000Z,22.2
2019-03-30T09:39:00.000Z,22.4
2019-03-30T09:44:00.000Z,22.8
2019-03-30T09:49:00.000Z,22.9
2019-03-30T09:54:00.000Z,22.9
2019-03-30T09:59:00.000Z,23.2
2019-03-30T10:04:00.000Z,23.1
2019-03-30T10:09:00.000Z,22.9
2019-03-30T10:14:00.000Z,22.8
2019-03-30T10:19:00.000Z,22.8
2019-03-30T10:24:00.000Z,22.7
2019-03-30T10:29:00.000Z,22.3
2019-03-30T10:34:00.000Z,21.9
2019-03-30T10:39:00.000Z,21.6
2019-03-30T10:44:00.000Z,21.6
2019-03-30T10:49:00.000Z,21.3
2019-03-30T10:54:00.000Z,21.5
2019-03-30T10:59:00.000Z,21.6
2019-03-30T11:04:00.000Z,21.7
2019-03-30T11:09:00.000Z,21.7
2019-03-30T11:14:00.000Z,21.3
2019-03-30T11:19:00.000Z,21.2
2019-03-30T11:24:00.000Z,21.2
2019-03-30T11:30:00.000Z,21.2
2019-03-30T11:35:00.000Z,20.9
2019-03-30T11:40:00.000Z,20.5
2019-03-30T11:45:00.000Z,20.1
2019-03-30T11:50:00.000Z,19.7
2019-03-30T11:55:00.000Z,19.6
2019-03-30T12:00:00.000Z,19.6
2019-03-30T12:05:00.000Z,19.6
2019-03-30T12:10:00.000Z,19.6
2019-03-30T12:15:00.000Z,19.6
2019-03-30T12:20:00.000Z,19.8
2019-03-30T12:25:00.000Z,19.9
2019-03-30T12:30:00.000Z,20.1
2019-03-30T12:35:00.000Z,19.9
2019-03-30T12:40:00.000Z,19.7
2019-03-30T12:45:00.000Z,19.9
2019-03-30T12:50:00.000Z,20.1
2019-03-30T13:02:00.000Z,20.3
2019-03-30T13:07:00.000Z,20.7
2019-03-30T13:12:00.000Z,21.0
2019-03-30T13:17:00.000Z,21.2
2019-03-30T13:22:00.000Z,21.5
2019-03-30T13:27:00.000Z,21.6
2019-03-30T13:32:00.000Z,21.9
2019-03-30T13:37:00.000Z,22.0
2019-03-30T13:42:00.000Z,22.3
2019-03-30T13:47:00.000Z,22.3
2019-03-30T13:52:00.000Z,22.1
2019-03-30T13:57:00.000Z,22.1
2019-03-30T14:02:00.000Z,21.9
2019-03-30T14:07:00.000Z,21.7
2019-03-30T14:13:00.000Z,21.8
2019-03-30T14:18:00.000Z,21.7
2019-03-30T14:23:00.000Z,21.5
2019-03-30T14:28:00.000Z,21.5
2019-03-30T14:33:00.000Z,21.3
2019-03-30T14:38:00.000Z,21.1
2019-03-30T14:43:00.000Z,20.9
2019-03-30T14:48:00.000Z,20.8
2019-03-30T14:53:00.000Z,20.7
2019-03-30T14:58:00.000Z,20.6
2019-03-30T15:03:00.000Z,20.5
2019-03-30T15:08:00.000Z,20.4
2019-03-30T15:13:00.000Z,20.5
2019-03-30T15:18:00.000Z,20.4
2019-03-30T15:23:00.000Z,20.2
2019-03-30T15:28:00.000Z,19.9
2019-03-30T15:33:00.000Z,19.6
2019-03-30T15:38:00.000Z,19.5
2019-03-30T15:43:00.000Z,19.3
2019-03-30T15:48:00.000Z,19.1
2019-03-30T15:53:00.000Z,18.9
2019-03-30T15:58:00.000Z,18.7
2019-03-30T16:03:00.000Z,18.6
2019-03-30T16:08:00.000Z,18.5
2019-03-30T16:13:00.000Z,18.3
2019-03-30T16:18:00.000Z,18.2
2019-03-30T16:23:00.000Z,18.0
2019-03-30T16:28:00.000Z,17.9
2019-03-30T16:33:00.000Z,17.8
2019-03-30T16:38:00.000Z,17.7
2019-03-30T16:43:00.000Z,17.5
2019-03-30T16:48:00.000Z,17.4
2019-03-30T16:53:00.000Z,17.3
2019-03-30T16:58:00.000Z,17.2
2019-03-30T17:03:00.000Z,17.0
2019-03-30T17:08:00.000Z,16.9
2019-03-30T17:13:00.000Z,16.8
2019-03-30T17:18:00.000Z,16.7
2019-03-30T17:23:00.000Z,16.5
2019-03-30T17:28:00.000Z,16.4
2019-03-30T17:33:00.000Z,16.3
2019-03-30T17:38:00.000Z,16.1
2019-03-30T17:43:00.000Z,16.0
2019-03-30T17:48:00.000Z,16.0
2019-03-30T17:53:00.000Z,15.9
2019-03-30T17:58:00.000Z,15.8
2019-03-30T18:03:00.000Z,15.7
2019-03-30T18:08:00.000Z,15.7
2019-03-30T18:13:00.000Z,15.6
2019-03-30T18:18:00.000Z,15.6
2019-03-30T18:23:00.000Z,15.5
2019-03-30T18:28:00.000Z,15.4
2019-03-30T18:33:00.000Z,15.4
2019-03-30T18:38:00.000Z,15.3
2019-03-30T18:43:00.000Z,15.2
2019-03-30T18:48:00.000Z,15.2
2019-03-30T18:53:00.000Z,15.1
2019-03-30T18:58:00.000Z,15.1
2019-03-30T19:03:00.000Z,15.0
2019-03-30T19:08:00.000Z,14.9
2019-03-30T19:13:00.000Z,14.8
2019-03-30T19:18:00.000Z,14.8
2019-03-30T19:23:00.000Z,14.7
2019-03-30T19:28:00.000Z,14.6
2019-03-30T19:33:00.000Z,14.6
2019-03-30T19:38:00.000Z,14.5
2019-03-30T19:44:00.000Z,14.5
2019-03-30T19:49:00.000Z,14.4
2019-03-30T19:54:00.000Z,14.4
2019-03-30T19:59:00.000Z,14.4
2019-03-30T20:04:00.000Z,14.3
2019-03-30T20:09:00.000Z,14.3
2019-03-30T20:14:00.000Z,14.2
2019-03-30T20:19:00.000Z,14.1
2019-03-30T20:24:00.000Z,14.1
2019-03-30T20:29:00.000Z,14.0
2019-03-30T20:34:00.000Z,13.9
2019-03-30T20:39:00.000Z,13.8
2019-03-30T20:44:00.000Z,13.7
2019-03-30T20:49:00.000Z,13.6
2019-03-30T20:54:00.000Z,13.5
2019-03-30T20:59:00.000Z,13.5
2019-03-30T21:04:00.000Z,13.4
2019-03-30T21:09:00.000Z,13.3
2019-03-30T21:14:00.000Z,13.3
2019-03-30T21:19:00.000Z,13.2
2019-03-30T21:24:00.000Z,13.1
2019-03-30T21:29:00.000Z,13.0
2019-03-30T21:34:00.000Z,13.0
2019-03-30T21:39:00.000Z,13.0
2019-03-30T21:44:00.000Z,12.9
2019-03-30T21:49:00.000Z,12.9
2019-03-30T21:54:00.000Z,12.8
2019-03-30T21:59:00.000Z,12.8
2019-03-30T22:05:00.000Z,12.8
2019-03-30T22:10:00.000Z,12.8
2019-03-30T22:15:00.000Z,12.7
2019-03-30T22:20:00.000Z,12.7
2019-03-30T22:25:00.000Z,12.7
2019-03-30T22:30:00.000Z,12.7
2019-03-30T22:35:00.000Z,12.6
2019-03-30T22:40:00.000Z,12.5
2019-03-30T22:45:00.000Z,12.3
2019-03-30T22:50:00.000Z,12.2
2019-03-30T22:55:00.000Z,12.1
2019-03-30T23:00:00.000Z,11.9
2019-03-30T23:05:00.000Z,11.8
2019-03-30T23:10:00.000Z,11.6
2019-03-30T23:15:00.000Z,11.6
2019-03-30T23:20:00.000Z,11.6
2019-03-30T23:25:00.000Z,11.6
2019-03-30T23:30:00.000Z,11.5
2019-03-30T23:35:00.000Z,11.4
2019-03-30T23:40:00.000Z,11.2
2019-03-30T23:45:00.000Z,11.1
2019-03-30T23:50:00.000Z,10.9
2019-03-30T23:55:00.000Z,10.8
